Time;durP1;ratioP1;P1;durP2;ratioP2;P2;SDS_P1;SDS_P2;PMS_P1;PMS_P2;Temp;Humidity;BMP_temperature;BMP_pressure;BME280_temperature;BME280_humidity;BME280_pressure;Samples;Min_cycle;Max_cycle;Signal;HPM_P1;HPM_P2
2021/08/07 00:00:18;;;;;;;;;;;14.40;99.90;;;;;;5076628;28;19931;-78
2021/08/07 00:02:47;;;;;;;;;;;14.30;99.90;;;;;;5076532;28;20353;-79
2021/08/07 00:05:14;;;;;;;;;;;14.40;99.90;;;;;;5076668;28;19921;-79
2021/08/07 00:07:40;;;;;;;;;;;14.40;99.90;;;;;;5076532;28;19921;-79
2021/08/07 00:10:08;;;;;;;;;;;14.40;99.90;;;;;;5076658;28;19930;-78
2021/08/07 00:12:35;;;;;;;;;;;14.40;99.90;;;;;;5076339;28;19974;-79
2021/08/07 00:15:02;;;;;;;;;;;14.30;99.90;;;;;;5075751;28;19920;-77
2021/08/07 00:17:29;;;;;;;;;;;14.30;99.90;;;;;;5076161;28;19921;-78
2021/08/07 00:19:57;;;;;;;;;;;14.30;99.90;;;;;;5076232;28;19939;-78
2021/08/07 00:22:24;;;;;;;;;;;14.30;99.90;;;;;;5076498;28;19920;-78
2021/08/07 00:24:52;;;;;;;;;;;14.30;99.90;;;;;;5075592;28;20188;-78
2021/08/07 00:27:19;;;;;;;;;;;14.30;99.90;;;;;;5076194;28;20239;-79
2021/08/07 00:29:46;;;;;;;;;;;14.20;99.90;;;;;;5076044;28;19929;-79
2021/08/07 00:32:13;;;;;;;;;;;14.20;99.90;;;;;;5076258;28;19924;-78
2021/08/07 00:34:40;;;;;;;;;;;14.20;99.90;;;;;;5076287;28;20226;-78
2021/08/07 00:37:08;;;;;;;;;;;14.20;99.90;;;;;;5075931;28;19924;-79
2021/08/07 00:39:35;;;;;;;;;;;14.20;99.90;;;;;;5076126;28;19924;-78
2021/08/07 00:42:02;;;;;;;;;;;14.20;99.90;;;;;;5075774;28;20358;-78
2021/08/07 00:44:28;;;;;;;;;;;14.20;99.90;;;;;;5075834;28;19924;-78
2021/08/07 00:46:55;;;;;;;;;;;14.20;99.90;;;;;;5076161;28;19935;-78
2021/08/07 00:49:22;;;;;;;;;;;14.20;99.90;;;;;;5075594;28;19925;-79
2021/08/07 00:51:49;;;;;;;;;;;14.20;99.90;;;;;;5075797;28;19935;-79
2021/08/07 00:54:17;;;;;;;;;;;14.20;99.90;;;;;;5075583;28;19931;-77
2021/08/07 00:56:44;;;;;;;;;;;14.20;99.90;;;;;;5075475;28;19925;-79
2021/08/07 00:59:11;;;;;;;;;;;14.20;99.90;;;;;;5075192;28;19924;-79
2021/08/07 01:01:38;;;;;;;;;;;14.20;99.90;;;;;;5075732;28;20327;-79
2021/08/07 01:04:05;;;;;;;;;;;14.20;99.90;;;;;;5075699;28;19924;-79
2021/08/07 01:06:34;;;;;;;;;;;14.20;99.90;;;;;;5075491;28;19950;-77
2021/08/07 01:09:03;;;;;;;;;;;14.20;99.90;;;;;;5075514;28;19928;-78
2021/08/07 01:11:34;;;;;;;;;;;14.20;99.90;;;;;;5075454;28;19925;-78
2021/08/07 01:14:03;;;;;;;;;;;14.20;99.90;;;;;;5075478;28;19925;-79
2021/08/07 01:16:30;;;;;;;;;;;14.20;99.90;;;;;;5075534;28;19925;-78
2021/08/07 01:18:57;;;;;;;;;;;14.20;99.90;;;;;;5075422;28;19935;-79
2021/08/07 01:21:26;;;;;;;;;;;14.10;99.90;;;;;;5075199;28;19924;-78
2021/08/07 01:23:54;;;;;;;;;;;14.10;99.90;;;;;;5075189;28;19925;-77
2021/08/07 01:26:25;;;;;;;;;;;14.10;99.90;;;;;;5075161;28;19928;-78
2021/08/07 01:28:53;;;;;;;;;;;14.20;99.90;;;;;;5075682;28;19928;-78
2021/08/07 01:31:20;;;;;;;;;;;14.10;99.90;;;;;;5075317;28;20003;-78
2021/08/07 01:33:47;;;;;;;;;;;14.10;99.90;;;;;;5075190;28;19928;-77
2021/08/07 01:36:14;;;;;;;;;;;14.10;99.90;;;;;;5075152;28;20338;-79
2021/08/07 01:38:42;;;;;;;;;;;14.10;99.90;;;;;;5075242;28;19931;-78
2021/08/07 01:41:13;;;;;;;;;;;14.10;99.90;;;;;;5075083;28;20254;-78
2021/08/07 01:43:40;;;;;;;;;;;14.10;99.90;;;;;;5075234;28;19925;-78
2021/08/07 01:46:08;;;;;;;;;;;14.10;99.90;;;;;;5075174;28;20274;-77
2021/08/07 01:48:37;;;;;;;;;;;14.10;99.90;;;;;;5075052;28;19931;-78
2021/08/07 01:51:05;;;;;;;;;;;14.10;99.90;;;;;;5075260;28;19935;-77
2021/08/07 01:53:32;;;;;;;;;;;14.10;99.90;;;;;;5075050;28;20361;-78
2021/08/07 01:56:00;;;;;;;;;;;14.10;99.90;;;;;;5074878;28;19928;-78
2021/08/07 01:58:27;;;;;;;;;;;14.10;99.90;;;;;;5074851;28;20365;-78
2021/08/07 02:00:54;;;;;;;;;;;14.00;99.90;;;;;;5074881;28;19924;-78
2021/08/07 02:03:22;;;;;;;;;;;14.00;99.90;;;;;;5074819;28;19924;-78
2021/08/07 02:05:49;;;;;;;;;;;14.00;99.90;;;;;;5074718;28;20270;-78
2021/08/07 02:08:16;;;;;;;;;;;14.00;99.90;;;;;;5074802;28;20342;-79
2021/08/07 02:10:43;;;;;;;;;;;14.00;99.90;;;;;;5076795;28;19925;-77
2021/08/07 02:13:10;;;;;;;;;;;14.00;99.90;;;;;;5078691;28;20342;-77
2021/08/07 02:15:37;;;;;;;;;;;14.00;99.90;;;;;;5078616;28;19935;-80
2021/08/07 02:18:03;;;;;;;;;;;14.00;99.90;;;;;;5078766;28;19924;-77
2021/08/07 02:20:32;;;;;;;;;;;14.00;99.90;;;;;;5078774;28;19924;-78
2021/08/07 02:22:58;;;;;;;;;;;14.00;99.90;;;;;;5078743;28;19924;-78
2021/08/07 02:25:25;;;;;;;;;;;14.00;99.90;;;;;;5078478;28;19932;-77
2021/08/07 02:27:52;;;;;;;;;;;14.00;99.90;;;;;;5078838;28;19928;-76
2021/08/07 02:30:19;;;;;;;;;;;14.00;99.90;;;;;;5078480;28;19928;-78
2021/08/07 02:32:46;;;;;;;;;;;13.90;99.90;;;;;;5078279;28;19924;-79
2021/08/07 02:35:13;;;;;;;;;;;13.90;99.90;;;;;;5078246;28;19924;-77
2021/08/07 02:37:41;;;;;;;;;;;13.90;99.90;;;;;;5078232;28;19935;-78
2021/08/07 02:40:09;;;;;;;;;;;13.90;99.90;;;;;;5078270;28;20356;-77
2021/08/07 02:42:36;;;;;;;;;;;13.90;99.90;;;;;;5078249;28;19935;-79
2021/08/07 02:45:02;;;;;;;;;;;13.90;99.90;;;;;;5078069;28;19925;-79
2021/08/07 02:47:29;;;;;;;;;;;13.90;99.90;;;;;;5078135;28;19939;-79
2021/08/07 02:49:56;;;;;;;;;;;13.90;99.90;;;;;;5077997;28;19931;-79
2021/08/07 02:52:23;;;;;;;;;;;13.90;99.90;;;;;;5078071;28;20346;-78
2021/08/07 02:54:51;;;;;;;;;;;13.90;99.90;;;;;;5077945;28;19935;-79
2021/08/07 02:57:18;;;;;;;;;;;13.90;99.90;;;;;;5078045;28;19924;-77
2021/08/07 02:59:45;;;;;;;;;;;13.80;99.90;;;;;;5077956;28;19925;-77
2021/08/07 03:02:12;;;;;;;;;;;13.90;99.90;;;;;;5077838;28;19925;-77
2021/08/07 03:04:39;;;;;;;;;;;13.90;99.90;;;;;;5077933;28;20377;-78
2021/08/07 03:07:05;;;;;;;;;;;13.90;99.90;;;;;;5077475;28;19934;-79
2021/08/07 03:09:32;;;;;;;;;;;13.90;99.90;;;;;;5077933;28;19924;-80
2021/08/07 03:12:00;;;;;;;;;;;13.90;99.90;;;;;;5077744;28;20392;-77
2021/08/07 03:14:27;;;;;;;;;;;13.80;99.90;;;;;;5077717;28;19924;-79
2021/08/07 03:16:54;;;;;;;;;;;13.80;99.90;;;;;;5077395;28;20309;-77
2021/08/07 03:19:21;;;;;;;;;;;13.80;99.90;;;;;;5077466;28;19924;-78
2021/08/07 03:21:48;;;;;;;;;;;13.90;99.90;;;;;;5077238;28;19925;-78
2021/08/07 03:24:15;;;;;;;;;;;13.80;99.90;;;;;;5077651;28;20265;-78
2021/08/07 03:26:41;;;;;;;;;;;13.90;99.90;;;;;;5077401;28;19925;-77
2021/08/07 03:29:10;;;;;;;;;;;13.90;99.90;;;;;;5077580;28;19935;-79
2021/08/07 03:31:36;;;;;;;;;;;13.80;99.90;;;;;;5077373;28;19925;-79
2021/08/07 03:34:03;;;;;;;;;;;13.80;99.90;;;;;;5077425;28;19924;-78
2021/08/07 03:36:30;;;;;;;;;;;13.80;99.90;;;;;;5077043;28;20293;-77
2021/08/07 03:38:57;;;;;;;;;;;13.80;99.90;;;;;;5077358;28;19930;-78
2021/08/07 03:41:24;;;;;;;;;;;13.80;99.90;;;;;;5077228;28;19929;-78
2021/08/07 03:43:50;;;;;;;;;;;13.80;99.90;;;;;;5077240;28;19927;-78
2021/08/07 03:46:19;;;;;;;;;;;13.80;99.90;;;;;;5076966;28;19924;-78
2021/08/07 03:48:45;;;;;;;;;;;13.80;99.90;;;;;;5076869;28;19934;-77
2021/08/07 03:51:12;;;;;;;;;;;13.80;99.90;;;;;;5077201;28;19924;-79
2021/08/07 03:53:39;;;;;;;;;;;13.80;99.90;;;;;;5076923;28;20510;-78
2021/08/07 03:56:06;;;;;;;;;;;13.80;99.90;;;;;;5076654;28;19925;-78
2021/08/07 03:58:33;;;;;;;;;;;13.80;99.90;;;;;;5076718;28;19935;-79
2021/08/07 04:00:59;;;;;;;;;;;13.80;99.90;;;;;;5076700;28;19928;-78
2021/08/07 04:03:28;;;;;;;;;;;13.80;99.90;;;;;;5076780;28;19925;-77
2021/08/07 04:05:54;;;;;;;;;;;13.80;99.90;;;;;;5076727;28;20350;-77
2021/08/07 04:08:21;;;;;;;;;;;13.80;99.90;;;;;;5076364;28;19928;-78
2021/08/07 04:10:48;;;;;;;;;;;13.80;99.90;;;;;;5076549;28;19947;-78
2021/08/07 04:13:15;;;;;;;;;;;13.80;99.90;;;;;;5076536;28;19925;-79
2021/08/07 04:15:42;;;;;;;;;;;13.80;99.90;;;;;;5076533;28;19936;-78
2021/08/07 04:18:09;;;;;;;;;;;13.90;99.90;;;;;;5076297;28;19990;-77
2021/08/07 04:20:37;;;;;;;;;;;13.90;99.90;;;;;;5076435;28;19925;-77
2021/08/07 04:23:05;;;;;;;;;;;13.90;99.90;;;;;;5076517;28;19924;-77
2021/08/07 04:25:32;;;;;;;;;;;13.90;99.90;;;;;;5076427;28;19932;-78
2021/08/07 04:27:59;;;;;;;;;;;13.90;99.90;;;;;;5076085;28;19924;-78
2021/08/07 04:30:26;;;;;;;;;;;13.90;99.90;;;;;;5076054;28;20361;-77
2021/08/07 04:32:52;;;;;;;;;;;13.90;99.90;;;;;;5075486;28;19924;-77
2021/08/07 04:35:19;;;;;;;;;;;13.90;99.90;;;;;;5076024;28;19924;-78
2021/08/07 04:37:48;;;;;;;;;;;13.90;99.90;;;;;;5076173;28;20378;-78
2021/08/07 04:40:15;;;;;;;;;;;13.90;99.90;;;;;;5075957;28;19935;-77
2021/08/07 04:42:42;;;;;;;;;;;13.80;99.90;;;;;;5075804;28;20269;-78
2021/08/07 04:45:09;;;;;;;;;;;13.80;99.90;;;;;;5076130;28;19924;-79
2021/08/07 04:47:36;;;;;;;;;;;13.80;99.90;;;;;;5075841;28;19924;-77
2021/08/07 04:50:03;;;;;;;;;;;13.80;99.90;;;;;;5075726;28;19936;-77
2021/08/07 04:52:30;;;;;;;;;;;13.80;99.90;;;;;;5075757;28;19925;-78
2021/08/07 04:54:58;;;;;;;;;;;13.80;99.90;;;;;;5075837;28;19924;-78
2021/08/07 04:57:25;;;;;;;;;;;13.80;99.90;;;;;;5075755;28;19925;-77
2021/08/07 04:59:52;;;;;;;;;;;13.80;99.90;;;;;;5075517;28;20388;-78
2021/08/07 05:02:18;;;;;;;;;;;13.80;99.90;;;;;;5075486;28;19924;-77
2021/08/07 05:04:45;;;;;;;;;;;13.80;99.90;;;;;;5075683;28;19936;-77
2021/08/07 05:07:12;;;;;;;;;;;13.80;99.90;;;;;;5075348;28;19928;-77
2021/08/07 05:09:39;;;;;;;;;;;13.80;99.90;;;;;;5075622;28;19936;-77
2021/08/07 05:12:08;;;;;;;;;;;13.80;99.90;;;;;;5075517;28;19935;-78
2021/08/07 05:14:34;;;;;;;;;;;13.80;99.90;;;;;;5075329;28;19935;-77
2021/08/07 05:17:01;;;;;;;;;;;13.80;99.90;;;;;;5075460;28;19935;-78
2021/08/07 05:19:28;;;;;;;;;;;13.80;99.90;;;;;;5075268;28;19961;-77
2021/08/07 05:21:55;;;;;;;;;;;13.90;99.90;;;;;;5075426;28;19932;-75
2021/08/07 05:24:22;;;;;;;;;;;13.90;99.90;;;;;;5075308;28;19946;-78
2021/08/07 05:26:48;;;;;;;;;;;13.90;99.90;;;;;;5075390;28;19924;-75
2021/08/07 05:29:17;;;;;;;;;;;14.00;99.90;;;;;;5075632;28;19924;-79
2021/08/07 05:31:43;;;;;;;;;;;14.00;99.90;;;;;;5075106;28;19924;-78
2021/08/07 05:34:10;;;;;;;;;;;14.00;99.90;;;;;;5075330;28;19936;-79
2021/08/07 05:36:37;;;;;;;;;;;14.00;99.90;;;;;;5074990;28;20334;-77
2021/08/07 05:39:04;;;;;;;;;;;14.10;99.90;;;;;;5075221;28;19924;-77
2021/08/07 05:41:31;;;;;;;;;;;14.10;99.90;;;;;;5074974;28;19925;-77
2021/08/07 05:43:57;;;;;;;;;;;14.10;99.90;;;;;;5074840;28;20258;-77
2021/08/07 05:46:26;;;;;;;;;;;14.20;99.90;;;;;;5074835;28;19935;-77
2021/08/07 05:48:55;;;;;;;;;;;14.20;99.90;;;;;;5075080;28;20278;-77
2021/08/07 05:51:21;;;;;;;;;;;14.20;99.90;;;;;;5074971;28;19939;-78
2021/08/07 05:53:48;;;;;;;;;;;14.20;99.90;;;;;;5074849;28;19925;-77
2021/08/07 05:56:15;;;;;;;;;;;14.30;99.90;;;;;;5074806;28;19932;-78
2021/08/07 05:58:42;;;;;;;;;;;14.30;99.90;;;;;;5074946;28;19924;-78
2021/08/07 06:01:09;;;;;;;;;;;14.30;99.90;;;;;;5075043;28;19932;-77
2021/08/07 06:03:37;;;;;;;;;;;14.40;99.90;;;;;;5075064;28;19924;-77
2021/08/07 06:06:04;;;;;;;;;;;14.40;99.90;;;;;;5074904;28;19924;-77
2021/08/07 06:08:30;;;;;;;;;;;14.50;99.90;;;;;;5074706;28;20249;-76
2021/08/07 06:10:57;;;;;;;;;;;14.40;99.90;;;;;;5074773;28;20261;-78
2021/08/07 06:13:24;;;;;;;;;;;14.40;99.90;;;;;;5074609;28;19932;-77
2021/08/07 06:15:51;;;;;;;;;;;14.40;99.90;;;;;;5074676;28;20409;-77
2021/08/07 06:18:18;;;;;;;;;;;14.40;99.90;;;;;;5074819;28;19931;-76
2021/08/07 06:20:46;;;;;;;;;;;14.40;99.90;;;;;;5076152;28;19925;-79
2021/08/07 06:23:13;;;;;;;;;;;14.40;99.90;;;;;;5075026;28;19932;-78
2021/08/07 06:25:40;;;;;;;;;;;14.50;99.90;;;;;;5075031;28;20358;-77
2021/08/07 06:28:07;;;;;;;;;;;14.50;99.90;;;;;;5074924;28;19930;-78
2021/08/07 06:30:33;;;;;;;;;;;14.50;99.90;;;;;;5074804;28;19925;-77
2021/08/07 06:33:01;;;;;;;;;;;14.50;99.90;;;;;;5074501;28;20074;-80
2021/08/07 06:35:29;;;;;;;;;;;14.50;99.90;;;;;;5074613;28;19980;-76
2021/08/07 06:37:59;;;;;;;;;;;14.50;99.90;;;;;;5074695;28;19925;-79
2021/08/07 06:40:27;;;;;;;;;;;14.50;99.90;;;;;;5074627;28;19925;-78
2021/08/07 06:42:57;;;;;;;;;;;14.50;99.90;;;;;;5074074;28;19975;-79
2021/08/07 06:45:25;;;;;;;;;;;14.50;99.90;;;;;;5074113;28;19925;-78
2021/08/07 06:47:55;;;;;;;;;;;14.50;99.90;;;;;;5073965;28;19929;-78
2021/08/07 06:50:23;;;;;;;;;;;14.40;99.90;;;;;;5073757;28;19943;-79
2021/08/07 06:52:52;;;;;;;;;;;14.50;99.90;;;;;;5074116;28;19925;-79
2021/08/07 06:55:23;;;;;;;;;;;14.50;99.90;;;;;;5073785;28;19924;-79
2021/08/07 06:57:51;;;;;;;;;;;14.50;99.90;;;;;;5075147;28;19925;-78
2021/08/07 07:00:20;;;;;;;;;;;14.50;99.90;;;;;;5077466;28;19925;-80
2021/08/07 07:02:47;;;;;;;;;;;14.60;99.90;;;;;;5077193;28;19928;-78
2021/08/07 07:05:16;;;;;;;;;;;14.60;99.90;;;;;;5077169;28;19928;-78
2021/08/07 07:07:46;;;;;;;;;;;14.60;99.90;;;;;;5077451;28;19971;-78
2021/08/07 07:10:13;;;;;;;;;;;14.70;99.90;;;;;;5077851;28;19924;-77
2021/08/07 07:12:43;;;;;;;;;;;14.70;99.90;;;;;;5077543;28;19934;-77
2021/08/07 07:15:11;;;;;;;;;;;14.70;99.90;;;;;;5077512;28;19924;-78
2021/08/07 07:17:39;;;;;;;;;;;14.70;99.90;;;;;;5077395;28;19925;-78
2021/08/07 07:20:07;;;;;;;;;;;14.80;99.90;;;;;;5077774;28;19934;-78
2021/08/07 07:22:35;;;;;;;;;;;14.80;99.90;;;;;;5077442;28;20374;-78
2021/08/07 07:25:04;;;;;;;;;;;14.80;99.90;;;;;;5077626;28;19931;-79
2021/08/07 07:27:31;;;;;;;;;;;14.80;99.90;;;;;;5077263;28;19924;-77
2021/08/07 07:29:59;;;;;;;;;;;14.90;99.90;;;;;;5076121;28;19935;-77
2021/08/07 07:32:26;;;;;;;;;;;14.90;99.90;;;;;;5077152;28;19925;-79
2021/08/07 07:34:52;;;;;;;;;;;14.90;99.90;;;;;;5077046;28;19935;-78
2021/08/07 07:37:19;;;;;;;;;;;14.90;99.90;;;;;;5076813;28;20338;-78
2021/08/07 07:39:46;;;;;;;;;;;15.00;99.90;;;;;;5077113;28;19928;-78
2021/08/07 07:42:13;;;;;;;;;;;15.00;99.90;;;;;;5077082;28;19925;-77
2021/08/07 07:44:40;;;;;;;;;;;15.10;99.90;;;;;;5076904;28;19932;-78
2021/08/07 07:47:08;;;;;;;;;;;15.10;99.90;;;;;;5077095;28;19924;-78
2021/08/07 07:49:35;;;;;;;;;;;15.10;99.90;;;;;;5076796;28;19924;-78
2021/08/07 07:52:02;;;;;;;;;;;15.10;99.90;;;;;;5076923;28;19931;-78
2021/08/07 07:54:28;;;;;;;;;;;15.10;99.90;;;;;;5077204;28;19924;-77
2021/08/07 07:56:55;;;;;;;;;;;15.10;99.90;;;;;;5076876;28;19924;-76
2021/08/07 07:59:22;;;;;;;;;;;15.10;99.90;;;;;;5077046;28;19936;-78
2021/08/07 08:01:49;;;;;;;;;;;15.20;99.90;;;;;;5077202;28;20262;-77
2021/08/07 08:04:17;;;;;;;;;;;15.20;99.90;;;;;;5076669;28;19931;-78
2021/08/07 08:06:44;;;;;;;;;;;15.20;99.90;;;;;;5076414;28;20235;-78
2021/08/07 08:09:11;;;;;;;;;;;15.20;99.90;;;;;;5075566;28;19936;-77
2021/08/07 08:11:39;;;;;;;;;;;15.20;99.90;;;;;;5076407;28;19931;-78
2021/08/07 08:14:09;;;;;;;;;;;15.20;99.90;;;;;;5073767;28;19924;-78
2021/08/07 08:16:40;;;;;;;;;;;15.20;99.90;;;;;;5076305;28;20342;-78
2021/08/07 08:19:11;;;;;;;;;;;15.20;99.90;;;;;;5076631;28;19924;-79
2021/08/07 08:21:40;;;;;;;;;;;15.20;99.90;;;;;;5076483;28;20010;-78
2021/08/07 08:24:09;;;;;;;;;;;15.20;99.90;;;;;;5076347;28;19973;-79
2021/08/07 08:26:37;;;;;;;;;;;15.20;99.90;;;;;;5076166;28;19924;-79
2021/08/07 08:29:05;;;;;;;;;;;15.20;99.90;;;;;;5076161;28;19934;-80
2021/08/07 08:31:33;;;;;;;;;;;15.20;99.90;;;;;;5078793;28;19924;-76
2021/08/07 08:34:01;;;;;;;;;;;15.20;99.90;;;;;;5076566;28;20471;-74
2021/08/07 08:36:28;;;;;;;;;;;15.20;99.90;;;;;;5075899;28;20250;-72
2021/08/07 08:39:01;;;;;;;;;;;15.20;99.90;;;;;;5075794;28;19925;-77
2021/08/07 08:41:32;;;;;;;;;;;15.30;99.90;;;;;;5076056;28;19935;-77
2021/08/07 08:44:01;;;;;;;;;;;15.30;99.90;;;;;;5076163;28;19925;-78
2021/08/07 08:46:29;;;;;;;;;;;15.20;99.90;;;;;;5076358;28;19924;-77
2021/08/07 08:48:58;;;;;;;;;;;15.20;99.90;;;;;;5075980;28;19924;-76
2021/08/07 08:51:27;;;;;;;;;;;15.20;99.90;;;;;;5075644;28;19939;-77
2021/08/07 08:53:54;;;;;;;;;;;15.10;99.90;;;;;;5075790;28;19932;-77
2021/08/07 08:56:23;;;;;;;;;;;15.00;99.90;;;;;;5075573;28;20373;-78
2021/08/07 08:58:51;;;;;;;;;;;14.90;99.90;;;;;;5075735;28;19924;-78
2021/08/07 09:01:20;;;;;;;;;;;14.90;99.90;;;;;;5075519;28;20370;-78
2021/08/07 09:03:48;;;;;;;;;;;14.90;99.90;;;;;;5075427;28;20281;-79
2021/08/07 09:06:16;;;;;;;;;;;14.80;99.90;;;;;;5075421;28;19925;-78
2021/08/07 09:09:03;;;;;;;;;;;14.70;99.90;;;;;;5075143;28;20006;-78
2021/08/07 09:11:36;;;;;;;;;;;14.60;99.90;;;;;;5075431;28;19931;-76
2021/08/07 09:14:17;;;;;;;;;;;14.60;99.90;;;;;;5075439;28;19979;-80
2021/08/07 09:17:04;;;;;;;;;;;14.50;99.90;;;;;;5075225;28;19924;-80
2021/08/07 09:19:47;;;;;;;;;;;14.50;99.90;;;;;;5075352;28;20441;-78
2021/08/07 09:22:17;;;;;;;;;;;14.50;99.90;;;;;;5073850;28;19951;-80
2021/08/07 09:25:00;;;;;;;;;;;14.50;99.90;;;;;;5075195;28;19978;-82
2021/08/07 09:27:33;;;;;;;;;;;14.50;99.90;;;;;;5066606;28;19925;-81
2021/08/07 09:30:03;;;;;;;;;;;14.50;99.90;;;;;;5075110;28;19924;-81
2021/08/07 09:32:43;;;;;;;;;;;14.50;99.90;;;;;;5075154;28;19925;-82
2021/08/07 09:35:13;;;;;;;;;;;14.50;99.90;;;;;;5075439;28;19925;-82
2021/08/07 09:37:39;;;;;;;;;;;14.50;99.90;;;;;;5074737;28;19936;-83
2021/08/07 09:40:12;;;;;;;;;;;14.50;99.90;;;;;;5075270;28;19925;-82
2021/08/07 09:42:58;;;;;;;;;;;14.50;99.90;;;;;;5075181;28;20262;-82
2021/08/07 09:45:27;;;;;;;;;;;14.50;99.90;;;;;;5075202;28;20001;-82
2021/08/07 09:48:01;;;;;;;;;;;14.50;99.90;;;;;;5074858;28;19950;-83
2021/08/07 09:50:30;;;;;;;;;;;14.50;99.90;;;;;;5074972;28;20319;-83
2021/08/07 09:53:00;;;;;;;;;;;14.40;99.90;;;;;;5075162;28;19925;-83
2021/08/07 09:55:31;;;;;;;;;;;14.40;99.90;;;;;;5074997;28;20303;-83
2021/08/07 09:58:17;;;;;;;;;;;14.40;99.90;;;;;;5074928;28;19979;-83
2021/08/07 10:00:45;;;;;;;;;;;14.40;99.90;;;;;;5075045;28;19924;-84
2021/08/07 10:03:27;;;;;;;;;;;14.40;99.90;;;;;;5074757;28;19924;-83
2021/08/07 10:05:55;;;;;;;;;;;14.40;99.90;;;;;;5074858;28;20421;-84
2021/08/07 10:11:12;;;;;;;;;;;14.40;99.90;;;;;;5074954;28;19925;-83
2021/08/07 10:13:50;;;;;;;;;;;14.40;99.90;;;;;;5074665;28;19925;-84
2021/08/07 10:16:18;;;;;;;;;;;14.40;99.90;;;;;;5074586;28;19924;-84
2021/08/07 10:18:45;;;;;;;;;;;14.50;99.90;;;;;;5074667;28;20276;-84
2021/08/07 10:21:13;;;;;;;;;;;14.50;99.90;;;;;;5074610;28;20354;-83
2021/08/07 10:23:42;;;;;;;;;;;14.50;99.90;;;;;;5074548;28;19925;-84
2021/08/07 10:26:09;;;;;;;;;;;14.60;99.90;;;;;;5073698;28;19935;-84
2021/08/07 10:28:39;;;;;;;;;;;14.60;99.90;;;;;;5074654;28;20011;-84
2021/08/07 10:31:09;;;;;;;;;;;14.70;99.90;;;;;;5075761;28;19928;-84
2021/08/07 10:33:41;;;;;;;;;;;14.80;99.90;;;;;;5078353;28;19928;-83
2021/08/07 10:36:10;;;;;;;;;;;14.80;99.90;;;;;;5078388;28;19924;-83
2021/08/07 10:38:40;;;;;;;;;;;14.90;99.90;;;;;;5076001;28;20369;-84
2021/08/07 10:41:11;;;;;;;;;;;15.00;99.90;;;;;;5078198;28;19978;-84
2021/08/07 10:43:40;;;;;;;;;;;15.00;99.90;;;;;;5078338;28;19925;-84
2021/08/07 10:46:09;;;;;;;;;;;15.00;99.90;;;;;;5078134;28;19924;-84
2021/08/07 10:48:43;;;;;;;;;;;15.10;99.90;;;;;;5078038;28;20228;-84
2021/08/07 10:51:30;;;;;;;;;;;15.20;99.90;;;;;;5078198;28;20027;-85
2021/08/07 10:53:58;;;;;;;;;;;15.20;99.90;;;;;;5077969;28;19942;-85
2021/08/07 10:56:33;;;;;;;;;;;15.30;99.90;;;;;;5078097;28;19968;-84
2021/08/07 10:59:15;;;;;;;;;;;15.30;99.90;;;;;;5078028;28;19939;-84
2021/08/07 11:01:45;;;;;;;;;;;15.30;99.90;;;;;;5077988;28;20247;-84
2021/08/07 11:04:14;;;;;;;;;;;15.30;99.90;;;;;;5078341;28;19924;-84
2021/08/07 11:06:51;;;;;;;;;;;15.30;99.90;;;;;;5077756;28;19924;-84
2021/08/07 11:09:20;;;;;;;;;;;15.30;99.90;;;;;;5077887;28;19924;-84
2021/08/07 11:11:49;;;;;;;;;;;15.30;99.90;;;;;;5077627;28;19924;-84
2021/08/07 11:14:34;;;;;;;;;;;15.30;99.90;;;;;;5077778;28;19928;-85
2021/08/07 11:17:20;;;;;;;;;;;15.20;99.90;;;;;;5073877;28;19971;-84
2021/08/07 11:19:54;;;;;;;;;;;15.20;99.90;;;;;;5077606;28;19925;-84
2021/08/07 11:22:44;;;;;;;;;;;15.30;99.90;;;;;;5077776;28;19924;-85
2021/08/07 11:25:14;;;;;;;;;;;15.30;99.90;;;;;;5077839;28;19994;-81
2021/08/07 11:27:59;;;;;;;;;;;15.30;99.90;;;;;;5077672;28;19924;-84
2021/08/07 11:30:27;;;;;;;;;;;15.40;99.90;;;;;;5077912;28;19929;-82
2021/08/07 11:33:13;;;;;;;;;;;15.60;99.90;;;;;;5076037;28;19964;-83
2021/08/07 11:36:07;;;;;;;;;;;15.60;99.90;;;;;;5059711;28;20286;-85
2021/08/07 11:38:35;;;;;;;;;;;15.70;99.90;;;;;;5035427;28;19925;-81
2021/08/07 11:41:03;;;;;;;;;;;15.70;99.90;;;;;;5035680;28;19933;-82
2021/08/07 11:43:31;;;;;;;;;;;15.70;99.90;;;;;;5035579;28;20016;-83
2021/08/07 11:46:05;;;;;;;;;;;15.70;99.90;;;;;;5035578;28;19983;-83
2021/08/07 11:48:32;;;;;;;;;;;15.70;99.90;;;;;;5035535;28;19925;-84
2021/08/07 11:50:59;;;;;;;;;;;15.70;99.90;;;;;;5035502;28;19925;-87
2021/08/07 11:53:26;;;;;;;;;;;15.70;99.90;;;;;;5035423;28;20031;-84
2021/08/07 11:55:57;;;;;;;;;;;15.60;99.90;;;;;;5034745;28;20421;-85
2021/08/07 11:58:24;;;;;;;;;;;15.60;99.90;;;;;;5035772;28;20232;-84
2021/08/07 12:00:51;;;;;;;;;;;15.60;99.90;;;;;;5035268;28;19933;-83
2021/08/07 12:03:18;;;;;;;;;;;15.60;99.90;;;;;;5035366;28;19931;-84
2021/08/07 12:05:52;;;;;;;;;;;15.70;99.90;;;;;;5034921;28;20399;-83
2021/08/07 12:08:19;;;;;;;;;;;15.70;99.90;;;;;;5035135;28;19935;-86
2021/08/07 12:10:47;;;;;;;;;;;15.70;99.90;;;;;;5034928;28;20379;-84
2021/08/07 12:13:19;;;;;;;;;;;15.60;99.90;;;;;;5037502;28;19950;-86
2021/08/07 12:15:53;;;;;;;;;;;15.50;99.90;;;;;;5076672;28;20269;-86
2021/08/07 12:18:20;;;;;;;;;;;15.60;99.90;;;;;;5076439;28;19935;-84
2021/08/07 12:20:48;;;;;;;;;;;15.60;99.90;;;;;;5076264;28;19928;-84
2021/08/07 12:23:16;;;;;;;;;;;15.60;99.90;;;;;;5076190;28;19954;-86
2021/08/07 12:25:45;;;;;;;;;;;15.60;99.90;;;;;;5076311;28;19925;-86
2021/08/07 12:28:14;;;;;;;;;;;15.60;99.90;;;;;;5076505;28;19935;-86
2021/08/07 12:31:01;;;;;;;;;;;15.70;99.90;;;;;;5076212;28;19972;-87
2021/08/07 12:33:29;;;;;;;;;;;15.70;99.90;;;;;;5076116;28;19971;-84
2021/08/07 12:35:57;;;;;;;;;;;15.80;99.90;;;;;;5076324;28;19925;-84
2021/08/07 12:38:25;;;;;;;;;;;15.90;99.90;;;;;;5075906;28;19934;-86
2021/08/07 12:40:54;;;;;;;;;;;16.00;99.90;;;;;;5075572;28;19925;-84
2021/08/07 12:43:22;;;;;;;;;;;16.00;99.90;;;;;;5075905;28;19993;-85
2021/08/07 12:46:07;;;;;;;;;;;16.10;99.90;;;;;;5076286;28;20361;-83
2021/08/07 12:48:51;;;;;;;;;;;16.10;99.90;;;;;;5075366;28;19925;-83
2021/08/07 12:51:28;;;;;;;;;;;16.10;99.90;;;;;;5075832;28;19943;-82
2021/08/07 12:53:55;;;;;;;;;;;16.10;99.90;;;;;;5075327;28;19924;-82
2021/08/07 12:56:22;;;;;;;;;;;16.10;99.90;;;;;;5075683;28;19925;-82
2021/08/07 12:59:00;;;;;;;;;;;16.10;99.90;;;;;;5075534;28;20253;-82
2021/08/07 13:01:28;;;;;;;;;;;16.10;99.90;;;;;;5075568;28;19929;-82
2021/08/07 13:03:59;;;;;;;;;;;16.00;99.90;;;;;;5066251;28;19947;-81
2021/08/07 13:09:27;;;;;;;;;;;16.00;99.90;;;;;;5055386;28;19935;-81
2021/08/07 13:12:09;;;;;;;;;;;16.00;99.90;;;;;;5055430;28;19925;-81
2021/08/07 13:14:36;;;;;;;;;;;16.00;99.90;;;;;;5055425;28;19931;-82
2021/08/07 13:17:04;;;;;;;;;;;16.10;99.90;;;;;;5055542;28;19951;-82
2021/08/07 13:19:35;;;;;;;;;;;16.10;99.90;;;;;;5055501;28;19925;-81
2021/08/07 13:22:10;;;;;;;;;;;16.20;99.90;;;;;;5055185;28;19925;-80
2021/08/07 13:24:39;;;;;;;;;;;16.20;99.90;;;;;;5055248;28;20011;-81
2021/08/07 13:27:07;;;;;;;;;;;16.20;99.90;;;;;;5055200;28;19925;-81
2021/08/07 13:29:35;;;;;;;;;;;16.20;99.90;;;;;;5055088;28;19935;-81
2021/08/07 13:32:16;;;;;;;;;;;16.20;99.90;;;;;;5065209;28;19925;-81
2021/08/07 13:34:44;;;;;;;;;;;16.20;99.90;;;;;;5075316;28;19943;-82
2021/08/07 13:37:12;;;;;;;;;;;16.20;99.90;;;;;;5075009;28;19925;-82
2021/08/07 13:39:41;;;;;;;;;;;16.10;99.90;;;;;;5074331;28;20261;-82
2021/08/07 13:42:08;;;;;;;;;;;16.00;99.90;;;;;;5074217;28;19972;-82
2021/08/07 13:44:35;;;;;;;;;;;15.90;99.90;;;;;;5074411;28;19925;-82
2021/08/07 13:47:02;;;;;;;;;;;15.90;99.90;;;;;;5074452;28;19978;-83
2021/08/07 13:49:28;;;;;;;;;;;15.80;99.90;;;;;;5074354;28;19924;-83
2021/08/07 13:51:57;;;;;;;;;;;15.70;99.90;;;;;;5074134;28;19931;-82
2021/08/07 13:54:24;;;;;;;;;;;15.70;99.90;;;;;;5073972;28;19924;-82
2021/08/07 13:56:50;;;;;;;;;;;15.70;99.90;;;;;;5073962;28;20266;-82
2021/08/07 13:59:17;;;;;;;;;;;15.70;99.90;;;;;;5073862;28;19939;-83
2021/08/07 14:01:44;;;;;;;;;;;15.80;99.90;;;;;;5074064;28;19924;-83
2021/08/07 14:04:11;;;;;;;;;;;15.80;99.90;;;;;;5073811;28;19924;-83
2021/08/07 14:06:38;;;;;;;;;;;15.80;99.90;;;;;;5074772;28;19928;-84
2021/08/07 14:09:07;;;;;;;;;;;15.80;99.90;;;;;;5076767;28;19925;-85
2021/08/07 14:11:35;;;;;;;;;;;15.80;99.90;;;;;;5076594;28;19929;-85
2021/08/07 14:14:02;;;;;;;;;;;15.90;99.90;;;;;;5077670;28;19925;-84
2021/08/07 14:16:29;;;;;;;;;;;15.90;99.90;;;;;;5077757;28;19924;-85
2021/08/07 14:18:57;;;;;;;;;;;15.90;99.90;;;;;;5077404;28;19934;-84
2021/08/07 14:21:25;;;;;;;;;;;15.90;99.90;;;;;;5077356;28;19924;-85
2021/08/07 14:23:52;;;;;;;;;;;15.90;99.90;;;;;;5077221;28;19928;-85
2021/08/07 14:26:20;;;;;;;;;;;16.00;99.90;;;;;;5077521;28;20364;-86
2021/08/07 14:28:47;;;;;;;;;;;16.00;99.90;;;;;;5077069;28;19928;-86
2021/08/07 14:31:14;;;;;;;;;;;16.00;99.90;;;;;;5077098;28;19924;-86